createdAt,value
2022-09-12T00:00:52.248Z,10.79
2022-09-12T00:03:19.173Z,10.76
2022-09-12T00:05:47.454Z,11.10
2022-09-12T00:08:15.065Z,11.26
2022-09-12T00:10:43.913Z,11.19
2022-09-12T00:13:11.559Z,11.19
2022-09-12T00:15:43.608Z,11.12
2022-09-12T00:18:16.092Z,10.93
2022-09-12T00:20:45.629Z,11.01
2022-09-12T00:23:13.802Z,11.07
2022-09-12T00:25:46.074Z,11.01
2022-09-12T00:28:16.525Z,10.93
2022-09-12T00:30:45.437Z,10.69
2022-09-12T00:33:13.680Z,10.42
2022-09-12T00:35:49.599Z,10.22
2022-09-12T00:38:17.386Z,10.06
2022-09-12T00:40:45.270Z,10.00
2022-09-12T00:43:30.553Z,9.96
2022-09-12T00:46:01.973Z,9.90
2022-09-12T00:49:14.439Z,9.86
2022-09-12T00:51:48.290Z,10.32
2022-09-12T00:54:21.046Z,10.54
2022-09-12T00:56:50.336Z,10.76
2022-09-12T00:59:28.718Z,10.63
2022-09-12T01:01:56.640Z,10.45
2022-09-12T01:04:27.149Z,10.11
2022-09-12T01:06:57.213Z,9.90
2022-09-12T01:09:25.702Z,9.75
2022-09-12T01:11:53.608Z,9.68
2022-09-12T01:14:21.357Z,9.61
2022-09-12T01:16:50.077Z,9.58
2022-09-12T01:19:41.881Z,9.59
2022-09-12T01:22:49.910Z,9.60
2022-09-12T01:25:38.663Z,9.55
2022-09-12T01:28:29.513Z,9.48
2022-09-12T01:31:42.757Z,9.42
2022-09-12T01:34:28.140Z,9.58
2022-09-12T01:37:29.347Z,9.67
2022-09-12T01:40:22.106Z,9.93
2022-09-12T01:43:19.992Z,10.17
2022-09-12T01:46:14.567Z,10.29
2022-09-12T01:49:02.185Z,10.15
2022-09-12T01:51:38.874Z,9.92
2022-09-12T01:54:14.162Z,9.55
2022-09-12T01:56:43.087Z,9.54
2022-09-12T01:59:20.470Z,9.36
2022-09-12T02:02:07.333Z,9.47
2022-09-12T02:04:43.725Z,9.79
2022-09-12T02:07:37.359Z,10.04
2022-09-12T02:10:20.611Z,10.44
2022-09-12T02:12:56.655Z,10.52
2022-09-12T02:15:38.608Z,9.95
2022-09-12T02:18:06.914Z,9.59
2022-09-12T02:20:48.869Z,9.31
2022-09-12T02:23:23.948Z,9.15
2022-09-12T02:26:02.258Z,9.09
2022-09-12T02:28:35.343Z,9.08
2022-09-12T02:31:32.676Z,8.97
2022-09-12T02:34:30.990Z,8.95
2022-09-12T02:37:18.343Z,8.94
2022-09-12T02:39:45.726Z,8.95
2022-09-12T02:42:13.455Z,8.96
2022-09-12T02:44:41.065Z,8.87
2022-09-12T02:47:31.126Z,9.01
2022-09-12T02:49:59.354Z,8.91
2022-09-12T02:52:28.826Z,8.81
2022-09-12T02:54:57.684Z,8.75
2022-09-12T02:57:25.253Z,8.70
2022-09-12T02:59:57.282Z,8.62
2022-09-12T03:03:04.765Z,8.75
2022-09-12T03:05:56.429Z,8.67
2022-09-12T03:08:46.858Z,8.80
2022-09-12T03:11:41.588Z,9.00
2022-09-12T03:14:41.993Z,9.18
2022-09-12T03:17:27.497Z,9.03
2022-09-12T03:20:10.868Z,8.75
2022-09-12T03:22:53.717Z,8.89
2022-09-12T03:25:50.034Z,8.65
2022-09-12T03:28:19.876Z,8.57
2022-09-12T03:30:48.973Z,8.42
2022-09-12T03:33:23.199Z,8.36
2022-09-12T03:35:50.943Z,8.34
2022-09-12T03:38:18.650Z,8.42
2022-09-12T03:40:47.784Z,8.85
2022-09-12T03:43:16.246Z,9.02
2022-09-12T03:45:43.236Z,9.05
2022-09-12T03:48:10.235Z,8.96
2022-09-12T03:50:37.235Z,9.23
2022-09-12T03:53:04.417Z,9.24
2022-09-12T03:55:31.320Z,9.05
2022-09-12T03:57:58.219Z,9.20
2022-09-12T04:00:25.211Z,9.20
2022-09-12T04:02:58.840Z,9.17
2022-09-12T04:05:26.359Z,9.25
2022-09-12T04:07:53.329Z,9.25
2022-09-12T04:10:20.300Z,8.99
2022-09-12T04:12:47.584Z,8.61
2022-09-12T04:15:14.602Z,8.71
2022-09-12T04:17:41.560Z,8.54
2022-09-12T04:20:09.121Z,8.39
2022-09-12T04:22:36.224Z,8.30
2022-09-12T04:25:03.357Z,8.23
2022-09-12T04:27:30.885Z,8.18
2022-09-12T04:29:58.473Z,8.11
2022-09-12T04:32:25.417Z,8.11
2022-09-12T04:34:52.545Z,8.00
2022-09-12T04:37:19.547Z,7.88
2022-09-12T04:39:49.086Z,7.90
2022-09-12T04:42:16.627Z,7.99
2022-09-12T04:44:43.812Z,7.94
2022-09-12T04:47:10.864Z,8.08
2022-09-12T04:49:37.769Z,8.12
2022-09-12T04:52:04.781Z,8.50
2022-09-12T04:54:31.856Z,8.64
2022-09-12T04:56:59.549Z,8.50
2022-09-12T04:59:26.866Z,8.25
2022-09-12T05:01:54.201Z,8.12
2022-09-12T05:04:21.523Z,8.01
2022-09-12T05:06:48.612Z,7.99
2022-09-12T05:09:16.434Z,7.94
2022-09-12T05:14:33.803Z,7.98
2022-09-12T05:17:01.977Z,7.99
2022-09-12T05:19:31.027Z,8.15
2022-09-12T05:21:58.952Z,8.23
2022-09-12T05:24:26.171Z,8.26
2022-09-12T05:26:53.393Z,8.43
2022-09-12T05:29:20.318Z,8.54
2022-09-12T05:31:50.084Z,8.68
2022-09-12T05:34:17.044Z,8.71
2022-09-12T05:36:43.999Z,8.84
2022-09-12T05:39:11.368Z,9.12
2022-09-12T05:41:38.729Z,9.14
2022-09-12T05:44:07.256Z,8.95
2022-09-12T05:46:40.206Z,8.98
2022-09-12T05:49:09.990Z,9.34
2022-09-12T05:51:39.701Z,10.35
2022-09-12T05:54:08.159Z,10.70
2022-09-12T05:56:39.326Z,11.00
2022-09-12T05:59:28.422Z,11.41
2022-09-12T06:01:55.466Z,12.73
2022-09-12T06:04:23.754Z,14.19
2022-09-12T06:06:51.889Z,15.36
2022-09-12T06:09:18.831Z,16.33
2022-09-12T06:11:46.668Z,16.46
2022-09-12T06:14:16.948Z,16.37
2022-09-12T06:16:44.696Z,16.26
2022-09-12T06:19:23.160Z,16.48
2022-09-12T06:21:51.465Z,16.67
2022-09-12T06:24:20.202Z,17.49
2022-09-12T06:26:48.951Z,18.10
2022-09-12T06:29:16.651Z,19.07
2022-09-12T06:31:44.287Z,19.55
2022-09-12T06:34:14.061Z,19.38
2022-09-12T06:36:44.438Z,19.67
2022-09-12T06:39:14.462Z,19.92
2022-09-12T06:41:44.279Z,20.76
2022-09-12T06:44:21.584Z,21.10
2022-09-12T06:46:49.750Z,21.17
2022-09-12T06:49:17.728Z,21.66
2022-09-12T06:51:44.852Z,22.06
2022-09-12T06:54:17.056Z,22.49
2022-09-12T06:56:44.845Z,21.10
2022-09-12T06:59:11.988Z,21.47
2022-09-12T07:01:40.118Z,21.30
2022-09-12T07:04:07.458Z,20.73
2022-09-12T07:06:41.306Z,21.08
2022-09-12T07:09:13.505Z,20.56
2022-09-12T07:11:42.259Z,21.04
2022-09-12T07:14:13.750Z,20.74
2022-09-12T07:16:41.300Z,21.64
2022-09-12T07:19:09.034Z,23.11
2022-09-12T07:21:39.849Z,24.41
2022-09-12T07:24:09.545Z,23.83
2022-09-12T07:26:37.384Z,23.91
2022-09-12T07:29:32.282Z,24.53
2022-09-12T07:31:52.505Z,24.54
2022-09-12T07:34:19.825Z,24.07
2022-09-12T07:36:47.089Z,24.28
2022-09-12T07:39:14.391Z,24.64
2022-09-12T07:41:41.854Z,25.37
2022-09-12T07:44:09.223Z,26.47
2022-09-12T07:46:36.609Z,25.99
2022-09-12T07:49:04.217Z,26.07
2022-09-12T07:51:31.975Z,24.70
2022-09-12T07:53:59.402Z,24.67
2022-09-12T07:56:30.646Z,24.68
2022-09-12T07:58:58.880Z,25.51
2022-09-12T08:01:26.769Z,24.53
2022-09-12T08:03:58.581Z,24.75
2022-09-12T08:06:27.751Z,25.17
2022-09-12T08:08:56.868Z,25.62
2022-09-12T08:11:25.995Z,25.55
2022-09-12T08:13:57.054Z,26.31
2022-09-12T08:16:26.960Z,26.47
2022-09-12T08:18:54.330Z,27.57
2022-09-12T08:21:23.780Z,27.49
2022-09-12T08:23:56.197Z,27.93
2022-09-12T08:26:24.590Z,26.72
2022-09-12T08:28:53.178Z,27.22
2022-09-12T08:31:22.394Z,27.29
2022-09-12T08:33:50.214Z,28.74
2022-09-12T08:36:23.970Z,29.42
2022-09-12T08:38:59.289Z,30.02
2022-09-12T08:41:38.291Z,30.50
2022-09-12T08:44:26.907Z,28.67
2022-09-12T08:47:27.556Z,25.40
2022-09-12T08:50:09.615Z,27.40
2022-09-12T08:53:03.604Z,27.01
2022-09-12T08:55:59.276Z,24.40
2022-09-12T08:58:29.046Z,23.12
2022-09-12T09:01:22.362Z,23.77
2022-09-12T09:04:25.756Z,23.17
2022-09-12T09:07:28.889Z,22.57
2022-09-12T09:10:09.170Z,22.64
2022-09-12T09:13:38.255Z,23.06
2022-09-12T09:16:26.127Z,22.02
2022-09-12T09:18:54.788Z,23.56
2022-09-12T09:21:26.668Z,22.70
2022-09-12T09:24:02.866Z,22.78
2022-09-12T09:27:03.088Z,23.13
2022-09-12T09:29:42.385Z,24.54
2022-09-12T09:32:27.044Z,24.96
2022-09-12T09:34:54.262Z,24.37
2022-09-12T09:37:36.439Z,24.17
2022-09-12T09:40:35.705Z,25.20
2022-09-12T09:43:23.744Z,26.22
2022-09-12T09:45:52.994Z,26.56
2022-09-12T09:48:30.947Z,28.50
2022-09-12T09:51:03.584Z,28.70
2022-09-12T09:53:56.328Z,26.53
2022-09-12T09:56:40.249Z,25.58
2022-09-12T09:59:17.753Z,25.48
2022-09-12T10:01:59.987Z,25.56
2022-09-12T10:04:41.556Z,26.79
2022-09-12T10:07:21.662Z,24.46
2022-09-12T10:10:25.210Z,26.56
2022-09-12T10:13:16.646Z,26.40
2022-09-12T10:15:58.825Z,27.42
2022-09-12T10:18:42.777Z,26.45
2022-09-12T10:21:29.505Z,25.40
2022-09-12T10:24:48.698Z,24.90
2022-09-12T10:27:20.653Z,24.42
2022-09-12T10:29:54.570Z,26.62
2022-09-12T10:32:36.247Z,28.69
2022-09-12T10:35:25.474Z,26.04
2022-09-12T10:37:55.884Z,26.18
2022-09-12T10:40:31.583Z,25.74
2022-09-12T10:43:04.388Z,28.60
2022-09-12T10:45:35.891Z,29.24
2022-09-12T10:48:22.761Z,28.06
2022-09-12T10:50:49.632Z,28.09
2022-09-12T10:53:22.364Z,26.71
2022-09-12T10:56:07.391Z,27.29
2022-09-12T10:59:19.802Z,26.89
2022-09-12T11:01:53.150Z,25.22
2022-09-12T11:04:48.365Z,26.83
2022-09-12T11:07:38.246Z,26.64
2022-09-12T11:10:35.734Z,28.03
2022-09-12T11:13:32.630Z,28.16
2022-09-12T11:16:32.317Z,29.81
2022-09-12T11:19:38.411Z,26.54
2022-09-12T11:22:31.738Z,26.45
2022-09-12T11:25:10.746Z,27.57
2022-09-12T11:27:50.035Z,27.32
2022-09-12T11:30:18.792Z,28.16
2022-09-12T11:33:12.580Z,25.84
2022-09-12T11:35:51.886Z,26.29
2022-09-12T11:38:38.034Z,27.05
2022-09-12T11:41:07.933Z,27.42
2022-09-12T11:43:35.217Z,26.95
2022-09-12T11:46:22.887Z,29.16
2022-09-12T11:48:55.588Z,28.38
2022-09-12T11:51:53.300Z,26.97
2022-09-12T11:54:53.731Z,25.11
2022-09-12T11:57:33.880Z,26.22
2022-09-12T12:00:10.818Z,27.44
2022-09-12T12:02:44.538Z,28.78
2022-09-12T12:05:20.644Z,29.05
2022-09-12T12:08:01.037Z,28.53
2022-09-12T12:10:50.430Z,27.77
2022-09-12T12:13:25.478Z,29.32
2022-09-12T12:15:59.265Z,29.48
2022-09-12T12:18:32.629Z,30.46
2022-09-12T12:21:40.200Z,29.63
2022-09-12T12:24:10.101Z,29.85
2022-09-12T12:26:39.775Z,30.40
2022-09-12T12:29:18.443Z,30.49
2022-09-12T12:32:03.459Z,30.65
2022-09-12T12:34:41.838Z,30.56
2022-09-12T12:37:23.334Z,32.65
2022-09-12T12:39:51.101Z,33.18
2022-09-12T12:42:33.866Z,31.29
2022-09-12T12:45:09.567Z,31.54
2022-09-12T12:47:36.400Z,29.70
2022-09-12T12:50:08.513Z,28.77
2022-09-12T12:52:57.086Z,28.76
2022-09-12T12:55:31.216Z,29.03
2022-09-12T12:58:03.663Z,28.98
2022-09-12T13:00:40.240Z,28.44
2022-09-12T13:03:07.065Z,29.05
2022-09-12T13:05:46.470Z,30.23
2022-09-12T13:08:19.845Z,29.81
2022-09-12T13:10:58.350Z,27.89
2022-09-12T13:13:30.985Z,29.80
2022-09-12T13:15:58.700Z,29.84
2022-09-12T13:18:44.645Z,31.19
2022-09-12T13:21:21.550Z,30.02
2022-09-12T13:24:04.730Z,28.47
2022-09-12T13:26:43.856Z,27.73
2022-09-12T13:29:22.377Z,26.82
2022-09-12T13:31:57.115Z,26.87
2022-09-12T13:34:36.286Z,26.40
2022-09-12T13:37:34.270Z,25.86
2022-09-12T13:40:17.533Z,25.54
2022-09-12T13:43:12.020Z,25.32
2022-09-12T13:45:39.715Z,25.37
2022-09-12T13:48:16.785Z,25.20
2022-09-12T13:51:03.115Z,25.15
2022-09-12T13:53:45.014Z,24.67
2022-09-12T13:56:18.482Z,24.49
2022-09-12T13:58:57.875Z,24.32
2022-09-12T14:01:43.206Z,24.44
2022-09-12T14:04:44.220Z,24.37
2022-09-12T14:07:23.806Z,24.20
2022-09-12T14:09:59.904Z,24.27
2022-09-12T14:12:30.231Z,24.30
2022-09-12T14:14:57.832Z,24.33
2022-09-12T14:17:31.618Z,24.10
2022-09-12T14:20:08.852Z,24.10
2022-09-12T14:22:36.502Z,24.28
2022-09-12T14:25:03.945Z,24.20
2022-09-12T14:27:45.642Z,24.40
2022-09-12T14:30:34.836Z,24.19
2022-09-12T14:33:10.904Z,24.26
2022-09-12T14:35:47.721Z,24.24
2022-09-12T14:38:17.479Z,24.21
2022-09-12T14:40:52.983Z,24.31
2022-09-12T14:43:33.702Z,24.27
2022-09-12T14:46:17.051Z,23.72
2022-09-12T14:48:51.141Z,23.82
2022-09-12T14:51:51.470Z,24.04
2022-09-12T14:54:40.164Z,23.78
2022-09-12T14:57:45.144Z,23.83
2022-09-12T15:00:12.036Z,23.99
2022-09-12T15:02:40.549Z,24.11
2022-09-12T15:05:07.337Z,23.95
2022-09-12T15:07:42.283Z,24.16
2022-09-12T15:10:18.620Z,23.86
2022-09-12T15:12:45.493Z,24.01
2022-09-12T15:15:21.073Z,23.98
2022-09-12T15:17:47.965Z,24.06
2022-09-12T15:20:14.931Z,23.81
2022-09-12T15:22:42.376Z,23.69
2022-09-12T15:25:12.982Z,23.76
2022-09-12T15:27:42.718Z,23.66
2022-09-12T15:30:12.107Z,23.77
2022-09-12T15:32:42.438Z,23.74
2022-09-12T15:35:22.551Z,23.79
2022-09-12T15:37:50.196Z,23.80
2022-09-12T15:40:17.503Z,23.85
2022-09-12T15:42:44.597Z,23.81
2022-09-12T15:45:27.126Z,23.76
2022-09-12T15:47:55.000Z,23.74
2022-09-12T15:50:22.366Z,23.80
2022-09-12T15:52:49.451Z,23.61
2022-09-12T15:55:23.767Z,23.66
2022-09-12T15:57:51.042Z,23.71
2022-09-12T16:00:19.163Z,23.70
2022-09-12T16:02:50.137Z,23.66
2022-09-12T16:05:24.316Z,23.61
2022-09-12T16:07:53.985Z,23.56
2022-09-12T16:10:25.743Z,23.58
2022-09-12T16:12:52.901Z,23.53
2022-09-12T16:15:23.412Z,23.48
2022-09-12T16:17:50.839Z,23.44
2022-09-12T16:20:19.286Z,23.55
2022-09-12T16:22:46.560Z,23.48
2022-09-12T16:25:13.921Z,23.45
2022-09-12T16:27:41.326Z,23.46
2022-09-12T16:30:09.522Z,23.40
2022-09-12T16:32:36.989Z,23.28
2022-09-12T16:35:04.348Z,23.28
2022-09-12T16:37:32.213Z,23.18
2022-09-12T16:39:59.255Z,23.11
2022-09-12T16:42:26.248Z,23.05
2022-09-12T16:44:53.044Z,23.00
2022-09-12T16:47:19.910Z,22.99
2022-09-12T16:49:46.813Z,22.90
2022-09-12T16:52:16.478Z,22.83
2022-09-12T16:54:46.464Z,22.78
2022-09-12T16:57:13.400Z,22.67
2022-09-12T16:59:40.313Z,22.58
2022-09-12T17:02:12.175Z,22.51
2022-09-12T17:04:39.603Z,22.39
2022-09-12T17:07:06.933Z,22.29
2022-09-12T17:09:34.154Z,22.21
2022-09-12T17:12:01.207Z,22.11
2022-09-12T17:14:28.159Z,22.07
2022-09-12T17:16:55.086Z,21.94
2022-09-12T17:19:29.887Z,21.83
2022-09-12T17:21:57.804Z,21.72
2022-09-12T17:24:24.970Z,21.58
2022-09-12T17:26:53.390Z,21.43
2022-09-12T17:29:20.738Z,21.27
2022-09-12T17:31:48.117Z,21.12
2022-09-12T17:34:16.225Z,20.93
2022-09-12T17:36:44.486Z,20.82
2022-09-12T17:39:13.547Z,20.78
2022-09-12T17:41:45.736Z,20.52
2022-09-12T17:44:15.080Z,20.33
2022-09-12T17:46:43.098Z,20.23
2022-09-12T17:49:16.277Z,19.91
2022-09-12T17:51:43.893Z,19.71
2022-09-12T17:54:15.650Z,19.77
2022-09-12T17:56:44.282Z,19.57
2022-09-12T17:59:17.293Z,19.66
2022-09-12T18:02:02.684Z,19.62
2022-09-12T18:04:30.034Z,19.52
2022-09-12T18:06:57.739Z,19.40
2022-09-12T18:09:28.192Z,19.37
2022-09-12T18:11:55.526Z,19.06
2022-09-12T18:14:23.619Z,18.82
2022-09-12T18:16:50.730Z,18.64
2022-09-12T18:19:18.388Z,18.47
2022-09-12T18:21:45.373Z,18.41
2022-09-12T18:24:12.766Z,18.02
2022-09-12T18:26:40.034Z,18.08
2022-09-12T18:29:07.683Z,18.10
2022-09-12T18:31:34.735Z,18.22
2022-09-12T18:34:02.551Z,18.20
2022-09-12T18:36:30.615Z,18.23
2022-09-12T18:38:59.173Z,18.12
2022-09-12T18:41:28.745Z,17.94
2022-09-12T18:43:59.649Z,17.86
2022-09-12T18:46:29.168Z,17.81
2022-09-12T18:48:59.799Z,17.75
2022-09-12T18:51:34.843Z,17.66
2022-09-12T18:54:08.723Z,17.74
2022-09-12T18:56:38.232Z,17.69
2022-09-12T18:59:06.824Z,17.62
2022-09-12T19:01:36.547Z,17.61
2022-09-12T19:04:04.946Z,17.66
2022-09-12T19:06:36.889Z,17.60
2022-09-12T19:09:07.966Z,17.44
2022-09-12T19:11:38.333Z,17.36
2022-09-12T19:14:06.759Z,17.36
2022-09-12T19:16:34.664Z,17.41
2022-09-12T19:19:02.570Z,17.33
2022-09-12T19:21:32.056Z,17.18
2022-09-12T19:24:03.491Z,17.17
2022-09-12T19:26:30.525Z,17.23
2022-09-12T19:28:58.477Z,17.29
2022-09-12T19:31:26.067Z,17.40
2022-09-12T19:33:53.099Z,17.44
2022-09-12T19:36:43.974Z,17.70
2022-09-12T19:39:09.946Z,17.88
2022-09-12T19:41:37.025Z,17.87
2022-09-12T19:44:05.141Z,17.91
2022-09-12T19:46:32.209Z,17.90
2022-09-12T19:48:59.312Z,18.02
2022-09-12T19:51:26.414Z,18.03
2022-09-12T19:53:53.918Z,17.90
2022-09-12T19:56:21.093Z,17.89
2022-09-12T19:58:55.296Z,17.61
2022-09-12T20:01:29.911Z,17.43
2022-09-12T20:03:58.368Z,17.17
2022-09-12T20:06:26.215Z,17.07
2022-09-12T20:08:53.504Z,16.91
2022-09-12T20:11:23.612Z,16.70
2022-09-12T20:13:51.602Z,16.66
2022-09-12T20:16:22.131Z,16.49
2022-09-12T20:19:08.335Z,16.23
2022-09-12T20:21:36.694Z,16.38
2022-09-12T20:24:10.109Z,16.30
2022-09-12T20:26:37.789Z,16.12
2022-09-12T20:29:06.809Z,16.07
2022-09-12T20:31:35.537Z,16.04
2022-09-12T20:34:03.163Z,15.97
2022-09-12T20:36:30.442Z,15.95
2022-09-12T20:39:01.029Z,15.87
2022-09-12T20:41:31.207Z,15.91
2022-09-12T20:43:58.322Z,15.87
2022-09-12T20:46:26.913Z,15.81
2022-09-12T20:48:54.799Z,15.98
2022-09-12T20:51:22.766Z,16.03
2022-09-12T20:53:54.552Z,16.23
2022-09-12T20:56:22.718Z,16.20
2022-09-12T20:58:50.065Z,16.24
2022-09-12T21:01:17.270Z,16.19
2022-09-12T21:03:45.047Z,16.23
2022-09-12T21:06:16.939Z,16.13
2022-09-12T21:08:45.377Z,16.12
2022-09-12T21:11:12.542Z,16.17
2022-09-12T21:13:39.693Z,16.18
2022-09-12T21:16:10.062Z,16.15
2022-09-12T21:18:37.900Z,15.95
2022-09-12T21:21:05.596Z,16.02
2022-09-12T21:23:33.649Z,15.95
2022-09-12T21:26:01.767Z,15.96
2022-09-12T21:28:29.129Z,15.83
2022-09-12T21:30:56.517Z,15.73
2022-09-12T21:33:24.388Z,16.39
2022-09-12T21:35:51.272Z,16.05
2022-09-12T21:38:19.679Z,15.64
2022-09-12T21:40:47.601Z,15.80
2022-09-12T21:43:14.938Z,15.86
2022-09-12T21:45:42.216Z,15.60
2022-09-12T21:48:09.451Z,15.46
2022-09-12T21:50:36.320Z,15.35
2022-09-12T21:53:03.552Z,15.29
2022-09-12T21:55:31.127Z,15.32
2022-09-12T21:57:58.060Z,15.65
2022-09-12T22:00:25.114Z,16.09
2022-09-12T22:02:53.162Z,16.52
2022-09-12T22:05:21.238Z,16.22
2022-09-12T22:07:48.165Z,15.80
2022-09-12T22:10:15.207Z,15.48
2022-09-12T22:12:46.131Z,15.43
2022-09-12T22:15:38.767Z,15.15
2022-09-12T22:18:02.008Z,15.05
2022-09-12T22:20:28.903Z,14.86
2022-09-12T22:23:14.115Z,14.83
2022-09-12T22:25:41.526Z,14.75
2022-09-12T22:28:08.481Z,14.71
2022-09-12T22:30:35.505Z,14.74
2022-09-12T22:33:02.416Z,14.75
2022-09-12T22:35:29.382Z,14.69
2022-09-12T22:37:56.252Z,14.94
2022-09-12T22:40:23.340Z,15.40
2022-09-12T22:42:52.909Z,15.41
2022-09-12T22:45:19.902Z,15.06
2022-09-12T22:47:47.244Z,15.05
2022-09-12T22:50:14.461Z,14.80
2022-09-12T22:52:41.598Z,14.75
2022-09-12T22:55:09.852Z,14.79
2022-09-12T22:57:37.422Z,14.64
2022-09-12T23:00:10.609Z,14.49
2022-09-12T23:02:38.097Z,14.43
2022-09-12T23:05:06.043Z,14.27
2022-09-12T23:07:33.536Z,14.37
2022-09-12T23:10:01.002Z,14.31
2022-09-12T23:12:27.954Z,14.24
2022-09-12T23:14:54.884Z,14.23
2022-09-12T23:17:21.749Z,14.21
2022-09-12T23:19:48.656Z,14.13
2022-09-12T23:22:15.600Z,14.06
2022-09-12T23:24:42.474Z,14.08
2022-09-12T23:27:09.509Z,13.96
2022-09-12T23:29:36.469Z,13.74
2022-09-12T23:32:06.752Z,13.57
2022-09-12T23:34:33.911Z,13.83
2022-09-12T23:37:00.777Z,13.77
2022-09-12T23:39:27.937Z,13.77
2022-09-12T23:41:55.476Z,13.84
2022-09-12T23:44:22.352Z,13.94
2022-09-12T23:46:49.228Z,13.71
2022-09-12T23:49:16.123Z,13.65
2022-09-12T23:51:42.977Z,13.79
2022-09-12T23:54:09.859Z,13.13
2022-09-12T23:56:37.110Z,12.92
2022-09-12T23:59:04.918Z,12.64
